Eisenach-Kindel Airport EDGE

Flugplatz Daten

Name: Eisenach-Kindel Airport

Ident: EDGE

Lat: 50,99277878

Long: 10,47277832

Platzhöhe: 1112 ft

IataCode:

City: Eisenach

Homepage: http://www.flugplatz-eisenach.de/

Metar

2021/10/21 11:30
RJTT 211130Z 10008KT 9999 FEW020 BKN160 17/08 Q1017 NOSIG RMK 1CU020 7AC160 A3004 MOD TURB OBS AT 1110Z 15NM S WEDGE BTN 10000FT AND 8000FT IN DES BY B738

Taf

Gewünschte Webcam nicht vorhanden? Dann fügen Sie eine hinzu. Sie wird dann so schnell wie möglich freigeschaltet
Url: Title: